Time;durP1;ratioP1;P1;durP2;ratioP2;P2;SDS_P1;SDS_P2;PMS_P1;PMS_P2;Temp;Humidity;BMP_temperature;BMP_pressure;BME280_temperature;BME280_humidity;BME280_pressure;Samples;Min_cycle;Max_cycle;Signal;HPM_P1;HPM_P2
2023/05/04 00:01:27;;;;;;;12.83;11.47;;;;;;;10.04;100.00;100060.91;6133821;23;20170;-83
2023/05/04 00:03:53;;;;;;;14.67;11.17;;;;;;;10.20;100.00;100055.19;6133267;23;20257;-84
2023/05/04 00:06:21;;;;;;;12.63;11.23;;;;;;;10.24;100.00;100060.94;6133655;23;20248;-83
2023/05/04 00:08:47;;;;;;;13.07;11.17;;;;;;;10.47;100.00;100055.97;6133715;23;20170;-85
2023/05/04 00:11:14;;;;;;;14.50;11.47;;;;;;;10.47;100.00;100056.81;6133603;23;20204;-82
2023/05/04 00:13:41;;;;;;;12.17;10.97;;;;;;;10.57;100.00;100054.53;6132828;23;20621;-84
2023/05/04 00:16:07;;;;;;;11.53;10.33;;;;;;;10.56;100.00;100046.69;6109408;23;20253;-83
2023/05/04 00:18:36;;;;;;;11.87;10.57;;;;;;;10.65;100.00;100048.13;6110038;23;20190;-82
2023/05/04 00:21:03;;;;;;;10.73;9.73;;;;;;;10.64;100.00;100046.47;6133702;23;20162;-82
2023/05/04 00:23:30;;;;;;;11.10;10.00;;;;;;;10.75;100.00;100043.16;6133233;23;20253;-84
2023/05/04 00:25:58;;;;;;;11.40;10.30;;;;;;;10.69;100.00;100040.47;6109336;23;20245;-82
2023/05/04 00:28:25;;;;;;;11.40;9.30;;;;;;;10.74;100.00;100043.34;6108851;23;20191;-82
2023/05/04 00:30:52;;;;;;;10.27;9.20;;;;;;;10.80;100.00;100035.28;6133499;23;20190;-84
2023/05/04 00:33:20;;;;;;;11.67;9.87;;;;;;;10.81;100.00;100036.94;6157640;23;20171;-82
2023/05/04 00:35:47;;;;;;;10.30;9.30;;;;;;;10.73;100.00;100037.16;6133627;23;20174;-84
2023/05/04 00:38:15;;;;;;;10.37;9.33;;;;;;;10.80;100.00;100029.94;6109149;23;20200;-83
2023/05/04 00:40:42;;;;;;;10.17;8.77;;;;;;;10.78;100.00;100029.31;6109534;23;20170;-82
2023/05/04 00:43:10;;;;;;;10.37;9.27;;;;;;;10.74;100.00;100022.72;6157703;23;20175;-82
2023/05/04 00:45:37;;;;;;;10.13;9.13;;;;;;;10.67;100.00;100024.63;6109701;23;20225;-83
2023/05/04 00:48:05;;;;;;;11.90;9.20;;;;;;;10.71;100.00;100023.16;6110850;23;20176;-84
2023/05/04 00:50:31;;;;;;;9.63;8.73;;;;;;;10.60;100.00;100018.44;6159520;23;20617;-82
2023/05/04 00:53:00;;;;;;;11.13;8.83;;;;;;;10.55;100.00;100019.06;6135237;23;20200;-83
2023/05/04 00:55:27;;;;;;;10.30;9.23;;;;;;;10.47;100.00;100016.63;6159707;23;20193;-82
2023/05/04 00:57:55;;;;;;;9.80;8.53;;;;;;;10.45;100.00;100009.84;6135191;23;20617;-85
2023/05/04 01:00:22;;;;;;;10.33;8.90;;;;;;;10.40;100.00;100017.69;6135314;23;20198;-82
2023/05/04 01:02:48;;;;;;;9.93;8.47;;;;;;;10.28;100.00;100016.66;6110952;23;20166;-85
2023/05/04 01:05:15;;;;;;;9.43;8.43;;;;;;;10.25;100.00;100014.41;6110981;23;20223;-84
2023/05/04 01:07:45;;;;;;;9.33;8.17;;;;;;;10.23;100.00;100016.44;6135116;23;20198;-83
2023/05/04 01:10:19;;;;;;;9.77;8.77;;;;;;;10.01;100.00;100008.63;6135298;23;20193;-82
2023/05/04 01:12:51;;;;;;;11.27;9.17;;;;;;;10.10;100.00;100018.09;6110928;23;20272;-82
2023/05/04 01:15:19;;;;;;;10.67;8.83;;;;;;;10.03;100.00;100013.78;6159772;23;20158;-82
2023/05/04 01:17:46;;;;;;;10.00;9.00;;;;;;;9.97;100.00;100020.78;6135246;23;20204;-82
2023/05/04 01:20:13;;;;;;;8.77;7.97;;;;;;;9.90;100.00;100005.72;6159407;23;20177;-84
2023/05/04 01:22:39;;;;;;;10.80;8.60;;;;;;;9.88;100.00;100021.19;6134928;23;20174;-84
2023/05/04 01:25:07;;;;;;;9.83;8.77;;;;;;;9.83;100.00;100020.97;6156462;23;20268;-84
2023/05/04 01:27:39;;;;;;;10.27;8.73;;;;;;;9.76;100.00;100022.81;6164489;23;20197;-83
2023/05/04 01:30:23;;;;;;;10.00;9.00;;;;;;;9.70;100.00;100014.56;6140470;23;20204;-82
2023/05/04 01:32:50;;;;;;;9.53;8.47;;;;;;;9.76;100.00;100017.47;6164721;23;20581;-83
2023/05/04 01:35:17;;;;;;;11.90;9.87;;;;;;;9.56;100.00;100006.75;6140428;23;20161;-83
2023/05/04 01:37:45;;;;;;;10.47;8.93;;;;;;;9.49;100.00;100009.41;6140504;23;20174;-82
2023/05/04 01:40:12;;;;;;;9.77;8.77;;;;;;;9.44;100.00;100011.88;6140050;23;20165;-84
2023/05/04 01:42:39;;;;;;;9.10;8.20;;;;;;;9.24;100.00;100011.81;6164226;23;20248;-83
2023/05/04 01:45:07;;;;;;;9.67;8.67;;;;;;;9.14;100.00;100015.91;6165027;23;20504;-87
2023/05/04 01:47:34;;;;;;;11.27;8.30;;;;;;;8.95;100.00;100012.16;6164517;23;20257;-83
2023/05/04 01:50:01;;;;;;;10.90;8.93;;;;;;;8.88;100.00;100015.81;6140259;23;20209;-83
2023/05/04 01:52:28;;;;;;;11.33;8.57;;;;;;;8.78;100.00;100022.34;6164410;23;20194;-82
2023/05/04 01:54:55;;;;;;;10.73;9.40;;;;;;;8.73;100.00;100016.75;6139623;23;20243;-83
2023/05/04 01:57:24;;;;;;;9.57;8.57;;;;;;;8.69;100.00;100023.53;6164440;23;20254;-82
2023/05/04 01:59:51;;;;;;;11.13;9.30;;;;;;;8.56;100.00;100011.94;6164049;23;20177;-83
2023/05/04 02:02:18;;;;;;;10.33;9.10;;;;;;;8.53;100.00;100015.03;6164138;23;20248;-82
2023/05/04 02:04:45;;;;;;;9.87;8.83;;;;;;;8.40;100.00;100010.41;6139672;23;20193;-83
2023/05/04 02:07:12;;;;;;;9.53;8.63;;;;;;;8.37;100.00;100018.81;6164731;23;20240;-83
2023/05/04 02:09:41;;;;;;;10.50;9.33;;;;;;;8.27;100.00;100008.47;6164308;23;20259;-83
2023/05/04 02:12:08;;;;;;;10.53;9.00;;;;;;;8.26;100.00;100013.97;6164646;23;20273;-82
2023/05/04 02:14:35;;;;;;;13.23;9.47;;;;;;;8.21;100.00;100014.56;6188417;23;20190;-83
2023/05/04 02:17:02;;;;;;;10.67;9.57;;;;;;;8.12;100.00;100009.59;6140350;23;20211;-85
2023/05/04 02:19:29;;;;;;;10.17;9.07;;;;;;;8.11;100.00;100014.09;6188917;23;20161;-84
2023/05/04 02:21:56;;;;;;;11.20;9.90;;;;;;;7.99;100.00;100012.97;6164248;23;20170;-82
2023/05/04 02:24:22;;;;;;;11.87;10.50;;;;;;;7.84;100.00;100021.06;6188736;23;20210;-86
2023/05/04 02:26:49;;;;;;;10.10;9.10;;;;;;;7.85;100.00;100021.88;6139857;23;20169;-84
2023/05/04 02:29:16;;;;;;;10.40;9.50;;;;;;;7.77;100.00;100011.38;6139848;23;20201;-82
2023/05/04 02:31:43;;;;;;;11.77;10.03;;;;;;;7.69;100.00;100017.66;6139365;23;20200;-86
2023/05/04 02:34:10;;;;;;;11.10;10.07;;;;;;;7.72;100.00;100013.78;6189357;23;20165;-85
2023/05/04 02:36:45;;;;;;;11.73;10.20;;;;;;;7.72;100.00;100011.09;6168501;23;20153;-83
2023/05/04 02:39:12;;;;;;;11.50;9.60;;;;;;;7.62;100.00;100013.28;6189302;23;20237;-84
2023/05/04 02:41:39;;;;;;;11.40;10.20;;;;;;;7.50;100.00;100015.63;6164046;23;20228;-84
2023/05/04 02:44:06;;;;;;;10.70;9.60;;;;;;;7.41;100.00;100017.59;6215070;23;20243;-82
2023/05/04 02:46:32;;;;;;;11.23;9.80;;;;;;;7.34;100.00;100013.19;6164111;23;20671;-83
2023/05/04 02:49:01;;;;;;;11.73;10.53;;;;;;;7.25;100.00;100009.00;6165283;23;20172;-83
2023/05/04 02:51:28;;;;;;;11.03;9.93;;;;;;;7.27;100.00;100017.66;6164493;23;20211;-81
2023/05/04 02:53:56;;;;;;;11.53;10.33;;;;;;;7.20;100.00;100009.56;6163853;23;20197;-83
2023/05/04 02:56:23;;;;;;;11.53;10.00;;;;;;;7.15;100.00;100011.16;6163607;23;20192;-82
2023/05/04 02:58:50;;;;;;;11.40;10.30;;;;;;;7.09;100.00;100020.75;6163922;23;20174;-83
2023/05/04 03:01:16;;;;;;;10.53;9.53;;;;;;;7.01;100.00;100011.00;6164345;23;20252;-84
2023/05/04 03:03:43;;;;;;;11.30;10.30;;;;;;;6.95;100.00;100010.94;6139504;23;20165;-82
2023/05/04 03:06:10;;;;;;;12.07;10.83;;;;;;;6.95;100.00;100013.59;6139436;23;20173;-85
2023/05/04 03:08:37;;;;;;;12.40;11.10;;;;;;;6.96;100.00;100012.56;6139497;23;20169;-84
2023/05/04 03:11:04;;;;;;;12.07;10.67;;;;;;;6.93;100.00;100011.13;6163857;23;20170;-82
2023/05/04 03:13:32;;;;;;;11.63;10.53;;;;;;;6.90;100.00;100010.69;6188387;23;20166;-84
2023/05/04 03:16:01;;;;;;;11.83;10.60;;;;;;;6.82;100.00;100005.44;6164199;23;20635;-86
2023/05/04 03:18:27;;;;;;;11.33;10.23;;;;;;;6.70;100.00;100005.09;6163692;23;20675;-83
2023/05/04 03:21:09;;;;;;;12.07;10.87;;;;;;;6.68;100.00;100006.28;6181725;23;20244;-84
2023/05/04 03:23:35;;;;;;;12.23;10.93;;;;;;;6.72;100.00;100003.06;6184768;23;20212;-82
2023/05/04 03:26:02;;;;;;;11.43;10.33;;;;;;;6.70;100.00;100005.09;6158568;23;20193;-85
2023/05/04 03:28:29;;;;;;;12.67;11.47;;;;;;;6.54;100.00;100006.09;6158740;23;20244;-83
2023/05/04 03:30:56;;;;;;;13.03;11.77;;;;;;;6.57;100.00;100004.94;6134142;23;20609;-83
2023/05/04 03:33:24;;;;;;;15.33;11.27;;;;;;;6.58;100.00;100014.53;6134530;23;20200;-85
2023/05/04 03:35:53;;;;;;;12.17;10.97;;;;;;;6.64;100.00;100014.63;6134743;23;20205;-82
2023/05/04 03:38:20;;;;;;;12.00;10.80;;;;;;;6.58;100.00;100009.22;6134667;23;20195;-83
2023/05/04 03:40:47;;;;;;;13.33;10.67;;;;;;;6.56;100.00;100009.41;6110029;23;20194;-84
2023/05/04 03:43:13;;;;;;;12.90;11.00;;;;;;;6.55;100.00;100013.09;6109823;23;20172;-83
2023/05/04 03:45:40;;;;;;;12.77;11.47;;;;;;;6.51;100.00;100010.97;6110027;23;20640;-82
2023/05/04 03:48:07;;;;;;;12.60;11.30;;;;;;;6.48;100.00;100009.53;6110355;23;20170;-84
2023/05/04 03:50:34;;;;;;;13.50;11.43;;;;;;;6.65;100.00;100010.16;6134473;23;20170;-86
2023/05/04 03:53:01;;;;;;;12.97;11.27;;;;;;;7.02;100.00;100015.31;6110313;23;20226;-83
2023/05/04 03:55:28;;;;;;;12.57;11.37;;;;;;;7.24;100.00;100010.00;6134225;23;20190;-85
2023/05/04 03:57:55;;;;;;;12.07;10.80;;;;;;;7.83;100.00;100015.94;6133978;23;20278;-83
2023/05/04 04:00:22;;;;;;;11.60;10.40;;;;;;;7.97;100.00;100018.53;6133912;23;20224;-82
2023/05/04 04:02:56;;;;;;;10.80;9.70;;;;;;;7.97;100.00;100021.19;6135280;23;20603;-84
2023/05/04 04:05:23;;;;;;;11.77;10.63;;;;;;;7.73;100.00;100023.44;6109923;23;20221;-84
2023/05/04 04:07:51;;;;;;;11.43;10.30;;;;;;;7.68;100.00;100024.00;6134319;23;20170;-83
2023/05/04 04:10:18;;;;;;;11.13;10.03;;;;;;;7.57;100.00;100021.84;6134290;23;20680;-83
2023/05/04 04:12:45;;;;;;;12.77;11.57;;;;;;;7.57;100.00;100023.69;6134056;23;20217;-82
2023/05/04 04:15:12;;;;;;;11.83;10.50;;;;;;;7.60;100.00;100023.31;6158687;23;20173;-83
2023/05/04 04:17:38;;;;;;;11.80;10.60;;;;;;;7.53;100.00;100024.06;6158759;23;20233;-82
2023/05/04 04:20:06;;;;;;;11.90;10.70;;;;;;;7.66;100.00;100022.53;6158738;23;20254;-83
2023/05/04 04:22:34;;;;;;;11.53;10.43;;;;;;;7.78;100.00;100023.69;6161067;23;20158;-84
2023/05/04 04:25:01;;;;;;;11.33;10.30;;;;;;;7.92;100.00;100022.78;6127182;23;20240;-84
2023/05/04 04:27:28;;;;;;;11.77;10.57;;;;;;;8.01;100.00;100024.28;6160505;23;20197;-84
2023/05/04 04:29:54;;;;;;;11.40;10.30;;;;;;;8.10;100.00;100030.31;6185039;23;20257;-83
2023/05/04 04:32:21;;;;;;;11.53;10.23;;;;;;;8.28;100.00;100027.97;6136054;23;20217;-83
2023/05/04 04:34:48;;;;;;;13.50;10.40;;;;;;;8.41;100.00;100030.75;6160309;23;20254;-84
2023/05/04 04:37:14;;;;;;;11.50;10.33;;;;;;;8.59;100.00;100040.91;6160340;23;20182;-82
2023/05/04 04:39:41;;;;;;;13.40;10.27;;;;;;;8.72;100.00;100031.16;6186299;23;20162;-83
2023/05/04 04:42:08;;;;;;;11.20;9.93;;;;;;;8.90;100.00;100035.97;6160211;23;20197;-82
2023/05/04 04:44:34;;;;;;;11.53;10.33;;;;;;;9.08;100.00;100030.06;6185124;23;20158;-85
2023/05/04 04:47:01;;;;;;;11.50;10.30;;;;;;;9.18;100.00;100028.69;6184750;23;20185;-84
2023/05/04 04:49:28;;;;;;;11.80;10.00;;;;;;;9.37;100.00;100027.09;6160174;23;20173;-83
2023/05/04 04:51:54;;;;;;;11.90;10.03;;;;;;;9.54;100.00;100033.69;6135502;23;20218;-83
2023/05/04 04:54:21;;;;;;;9.90;8.73;;;;;;;9.76;100.00;100030.84;6160190;23;20213;-82
2023/05/04 04:56:48;;;;;;;9.57;8.73;;;;;;;9.95;100.00;100035.38;6159929;23;20190;-82
2023/05/04 04:59:14;;;;;;;10.53;8.60;;;;;;;10.09;100.00;100032.50;6160067;23;20198;-82
2023/05/04 05:01:41;;;;;;;10.43;8.30;;;;;;;10.25;100.00;100033.97;6135222;23;20162;-83
2023/05/04 05:04:08;;;;;;;9.23;8.33;;;;;;;10.41;100.00;100038.06;6134902;23;20174;-83
2023/05/04 05:06:35;;;;;;;9.63;8.63;;;;;;;10.58;100.00;100036.59;6159672;23;20622;-82
2023/05/04 05:09:02;;;;;;;9.63;7.93;;;;;;;10.72;100.00;100048.09;6159579;23;20178;-83
2023/05/04 05:11:29;;;;;;;9.43;8.43;;;;;;;10.85;100.00;100032.81;6135135;23;20174;-83
2023/05/04 05:13:58;;;;;;;8.77;7.87;;;;;;;10.98;100.00;100046.16;6159678;23;20240;-83
2023/05/04 05:16:25;;;;;;;8.93;8.00;;;;;;;11.16;100.00;100041.94;6160148;23;20835;-84
2023/05/04 05:18:52;;;;;;;9.47;8.37;;;;;;;11.27;100.00;100043.97;6159648;23;20166;-83
2023/05/04 05:21:19;;;;;;;10.20;7.70;;;;;;;11.32;100.00;100044.97;6135645;23;20198;-83
2023/05/04 05:23:45;;;;;;;8.20;7.40;;;;;;;11.40;100.00;100038.53;6135861;23;20216;-83
2023/05/04 05:26:12;;;;;;;8.50;7.70;;;;;;;11.65;100.00;100050.16;6184235;23;20225;-84
2023/05/04 05:28:39;;;;;;;8.43;7.30;;;;;;;11.80;100.00;100042.63;6158539;23;20265;-83
2023/05/04 05:31:05;;;;;;;7.73;7.03;;;;;;;11.79;100.00;100045.56;6159394;23;20166;-83
2023/05/04 05:33:32;;;;;;;8.40;7.50;;;;;;;11.99;100.00;100040.06;6134320;23;20194;-85
2023/05/04 05:35:59;;;;;;;9.50;7.23;;;;;;;12.16;100.00;100043.81;6134826;23;20171;-83
2023/05/04 05:38:26;;;;;;;7.27;6.50;;;;;;;12.28;100.00;100050.94;6159227;23;20170;-83
2023/05/04 05:40:52;;;;;;;7.47;6.37;;;;;;;12.40;100.00;100050.22;6159600;23;20175;-83
2023/05/04 05:43:19;;;;;;;8.17;6.40;;;;;;;12.55;100.00;100046.13;6159330;23;20185;-83
2023/05/04 05:45:46;;;;;;;10.50;6.40;;;;;;;12.25;100.00;100047.88;6159571;23;20170;-83
2023/05/04 05:48:13;;;;;;;6.80;6.10;;;;;;;12.58;100.00;100037.63;6135232;23;20174;-84
2023/05/04 05:50:39;;;;;;;8.03;6.37;;;;;;;12.58;100.00;100036.81;6159321;23;20201;-84
2023/05/04 05:53:06;;;;;;;7.40;5.87;;;;;;;12.67;100.00;100047.06;6135104;23;20285;-83
2023/05/04 05:55:33;;;;;;;12.80;9.63;;;;;;;12.73;100.00;100040.78;6159232;23;20739;-85
2023/05/04 05:57:59;;;;;;;12.53;10.80;;;;;;;12.80;100.00;100036.16;6135417;23;20158;-83
2023/05/04 06:00:26;;;;;;;18.00;13.47;;;;;;;12.93;100.00;100040.53;6134677;23;20170;-84
2023/05/04 06:02:54;;;;;;;22.77;18.70;;;;;;;12.98;100.00;100046.06;6134850;23;20159;-83
2023/05/04 06:05:22;;;;;;;11.00;6.97;;;;;;;13.07;100.00;100038.50;6159149;23;20189;-86
2023/05/04 06:07:49;;;;;;;7.30;6.40;;;;;;;12.96;100.00;100042.81;6159581;23;20174;-84
2023/05/04 06:10:16;;;;;;;13.13;11.83;;;;;;;13.02;100.00;100033.81;6159768;23;20177;-84
2023/05/04 06:12:42;;;;;;;12.87;11.53;;;;;;;13.18;100.00;100038.63;6134372;23;20190;-84
2023/05/04 06:15:10;;;;;;;14.03;12.63;;;;;;;13.28;100.00;100034.56;6134962;23;20189;-83
2023/05/04 06:17:37;;;;;;;8.97;6.77;;;;;;;13.24;100.00;100023.44;6135051;23;20173;-83
2023/05/04 06:20:06;;;;;;;12.20;10.27;;;;;;;13.45;100.00;100038.25;6184027;23;20226;-84
2023/05/04 06:22:33;;;;;;;15.53;12.60;;;;;;;13.45;100.00;100032.88;6110510;23;20174;-85
2023/05/04 06:24:59;;;;;;;16.83;13.03;;;;;;;13.48;100.00;100033.25;6149169;23;20230;-83
2023/05/04 06:27:32;;;;;;;13.77;10.47;;;;;;;13.60;100.00;100034.13;6135188;23;20237;-83
2023/05/04 06:29:58;;;;;;;7.23;5.87;;;;;;;13.79;100.00;100036.72;6134067;23;20173;-83
2023/05/04 06:32:25;;;;;;;8.60;7.27;;;;;;;13.50;100.00;100033.84;6109724;23;20191;-84
2023/05/04 06:34:54;;;;;;;6.90;6.30;;;;;;;13.74;100.00;100032.03;6110260;23;20595;-84
2023/05/04 06:37:21;;;;;;;9.37;6.30;;;;;;;13.97;100.00;100032.09;6135094;23;20720;-83
2023/05/04 06:39:47;;;;;;;8.57;7.03;;;;;;;13.90;100.00;100028.69;6134332;23;20177;-83
2023/05/04 06:42:14;;;;;;;10.77;9.60;;;;;;;13.93;100.00;100030.91;6134336;23;20230;-83
2023/05/04 06:44:41;;;;;;;7.33;5.97;;;;;;;14.06;99.74;100036.09;6109496;23;20652;-84
2023/05/04 06:47:08;;;;;;;7.37;6.00;;;;;;;13.66;99.43;100032.38;6110244;23;20180;-83
2023/05/04 06:49:34;;;;;;;6.83;5.60;;;;;;;13.96;98.99;100025.06;6109778;23;20658;-83
2023/05/04 06:52:01;;;;;;;6.47;5.70;;;;;;;14.19;98.73;100029.66;6158737;23;20237;-84
2023/05/04 06:54:28;;;;;;;5.90;5.30;;;;;;;14.29;98.69;100035.28;6133803;23;20172;-82
2023/05/04 06:56:55;;;;;;;7.47;5.47;;;;;;;14.26;98.16;100032.25;6134001;23;20285;-83
2023/05/04 06:59:22;;;;;;;6.10;5.50;;;;;;;14.30;98.51;100030.72;6109610;23;20171;-83
2023/05/04 07:01:49;;;;;;;7.43;5.43;;;;;;;14.38;98.67;100035.78;6109508;23;20519;-83
2023/05/04 07:04:15;;;;;;;6.53;5.33;;;;;;;14.26;95.23;100033.06;6109851;23;20170;-83
2023/05/04 07:06:42;;;;;;;7.77;5.33;;;;;;;14.45;94.94;100036.50;6109689;23;20171;-83
2023/05/04 07:09:09;;;;;;;6.23;5.07;;;;;;;14.50;97.12;100039.31;6109413;23;20195;-83
2023/05/04 07:11:38;;;;;;;6.27;5.43;;;;;;;14.57;94.50;100031.09;6134424;23;20226;-84
2023/05/04 07:14:05;;;;;;;7.93;5.23;;;;;;;14.63;92.96;100039.06;6133611;23;20256;-83
2023/05/04 07:16:35;;;;;;;6.87;5.33;;;;;;;14.53;91.47;100034.25;6134614;23;20189;-84
2023/05/04 07:19:03;;;;;;;6.77;5.13;;;;;;;14.61;93.45;100038.47;6109870;23;20173;-83
2023/05/04 07:21:30;;;;;;;5.63;4.83;;;;;;;14.53;92.24;100038.84;6134329;23;20177;-83
2023/05/04 07:23:57;;;;;;;6.77;5.33;;;;;;;14.48;93.81;100036.00;6133211;23;20230;-84
2023/05/04 07:26:23;;;;;;;6.20;4.90;;;;;;;14.62;92.78;100045.50;6133755;23;20246;-82
2023/05/04 07:28:50;;;;;;;7.50;4.80;;;;;;;14.95;92.51;100043.00;6158021;23;20205;-82
2023/05/04 07:31:17;;;;;;;5.17;4.67;;;;;;;14.90;90.78;100039.38;6133884;23;20168;-83
2023/05/04 07:33:43;;;;;;;5.90;4.30;;;;;;;15.08;89.69;100043.78;6157890;23;20212;-82
2023/05/04 07:36:10;;;;;;;5.33;4.50;;;;;;;15.30;87.87;100042.09;6133865;23;20609;-83
2023/05/04 07:38:37;;;;;;;4.60;4.30;;;;;;;15.21;85.72;100036.22;6158409;23;20163;-84
2023/05/04 07:41:03;;;;;;;5.23;4.20;;;;;;;15.11;83.75;100036.06;6108749;23;20175;-83
2023/05/04 07:43:30;;;;;;;8.20;4.40;;;;;;;15.05;84.90;100038.88;6133062;23;20259;-82
2023/05/04 07:45:57;;;;;;;4.33;3.93;;;;;;;15.22;80.94;100037.88;6184038;23;20239;-83
2023/05/04 07:48:23;;;;;;;5.63;4.10;;;;;;;15.02;81.05;100032.09;6157974;23;20163;-82
2023/05/04 07:50:52;;;;;;;4.33;3.93;;;;;;;15.14;80.93;100026.66;6157257;23;20214;-83
2023/05/04 07:53:19;;;;;;;4.57;3.97;;;;;;;15.20;81.26;100021.13;6108558;23;20191;-82
2023/05/04 07:55:46;;;;;;;4.30;3.90;;;;;;;15.51;82.86;100030.63;6131405;23;20219;-81
2023/05/04 07:58:15;;;;;;;5.07;4.37;;;;;;;15.55;80.54;100025.56;6132823;23;20247;-81
2023/05/04 08:00:42;;;;;;;4.40;3.67;;;;;;;15.79;80.21;100022.50;6157734;23;20169;-81
2023/05/04 08:03:09;;;;;;;6.40;3.67;;;;;;;15.70;77.09;100018.56;6108838;23;20178;-80
2023/05/04 08:05:36;;;;;;;4.43;3.53;;;;;;;15.95;79.22;100026.28;6133227;23;20170;-80
2023/05/04 08:08:02;;;;;;;5.67;3.80;;;;;;;15.99;77.40;100024.75;6107779;23;20660;-81
2023/05/04 08:10:29;;;;;;;3.43;3.10;;;;;;;16.24;73.89;100019.72;6157399;23;20593;-81
2023/05/04 08:12:56;;;;;;;3.67;3.20;;;;;;;16.28;70.94;100020.84;6132771;23;20663;-81
2023/05/04 08:15:22;;;;;;;3.80;3.00;;;;;;;16.07;68.73;100021.63;6133224;23;20174;-80
2023/05/04 08:17:50;;;;;;;5.27;2.87;;;;;;;16.03;68.63;100014.25;6133089;23;20253;-81
2023/05/04 08:20:16;;;;;;;5.10;3.20;;;;;;;16.34;68.98;100015.53;6109105;23;20178;-81
2023/05/04 08:22:43;;;;;;;3.20;2.90;;;;;;;16.40;68.99;100020.78;6108639;23;20275;-81
2023/05/04 08:25:10;;;;;;;4.73;3.73;;;;;;;16.33;68.41;100024.72;6150002;23;20213;-80
2023/05/04 08:27:38;;;;;;;5.30;3.20;;;;;;;16.33;67.74;100020.13;6133237;23;20205;-81
2023/05/04 08:30:05;;;;;;;4.13;2.93;;;;;;;16.43;68.84;100022.16;6132881;23;20220;-81
2023/05/04 08:32:32;;;;;;;5.27;3.47;;;;;;;16.14;68.42;100024.97;6182098;23;20205;-81
2023/05/04 08:34:59;;;;;;;6.57;3.33;;;;;;;16.13;69.03;100017.94;6157742;23;20173;-81
2023/05/04 08:37:25;;;;;;;3.50;3.03;;;;;;;15.95;68.29;100014.66;6133238;23;20181;-82
2023/05/04 08:39:52;;;;;;;4.10;3.23;;;;;;;15.97;66.13;100016.03;6157077;23;20180;-81
2023/05/04 08:42:30;;;;;;;3.60;2.80;;;;;;;16.36;65.68;100022.34;6133289;23;20175;-81
2023/05/04 08:44:59;;;;;;;4.97;3.30;;;;;;;16.12;64.32;100027.09;6133934;23;20166;-81
2023/05/04 08:47:30;;;;;;;6.67;3.30;;;;;;;16.36;64.89;100013.41;6157460;23;20196;-80
2023/05/04 08:49:57;;;;;;;6.83;3.47;;;;;;;16.14;64.10;100016.06;6156079;23;20174;-82
2023/05/04 08:52:25;;;;;;;8.23;3.70;;;;;;;16.26;65.37;100023.00;6157472;23;20169;-81
2023/05/04 08:54:56;;;;;;;3.50;3.20;;;;;;;16.30;65.79;100016.03;6157151;23;20198;-81
2023/05/04 08:57:23;;;;;;;5.57;3.97;;;;;;;16.40;62.49;100004.56;6133864;23;20213;-81
2023/05/04 08:59:52;;;;;;;3.50;3.20;;;;;;;16.27;62.84;100005.72;6133327;23;20198;-81
2023/05/04 09:02:23;;;;;;;4.20;3.27;;;;;;;16.21;64.63;100008.59;6182281;23;20610;-81
2023/05/04 09:04:51;;;;;;;3.90;3.03;;;;;;;16.50;62.31;99999.28;6158193;23;20262;-82
2023/05/04 09:07:19;;;;;;;4.53;3.10;;;;;;;16.60;62.58;100004.88;6158573;23;20177;-81
2023/05/04 09:09:47;;;;;;;3.67;3.00;;;;;;;16.68;62.53;100003.63;6159065;23;20158;-81
2023/05/04 09:12:16;;;;;;;3.80;3.23;;;;;;;16.64;61.37;100008.72;6158470;23;20171;-81
2023/05/04 09:14:45;;;;;;;4.70;3.30;;;;;;;16.84;61.89;100002.75;6159069;23;20201;-81
2023/05/04 09:17:15;;;;;;;3.87;3.20;;;;;;;16.74;60.82;100008.03;6183789;23;20174;-81
2023/05/04 09:19:43;;;;;;;3.90;3.30;;;;;;;16.61;61.03;100000.28;6158957;23;20257;-81
2023/05/04 09:22:17;;;;;;;4.43;3.10;;;;;;;16.75;61.38;100000.75;6134499;23;20170;-81
2023/05/04 09:24:45;;;;;;;5.47;3.57;;;;;;;16.90;62.64;99996.31;6146843;23;20277;-81
2023/05/04 09:27:13;;;;;;;4.13;3.40;;;;;;;16.88;61.00;99997.66;6134282;23;20205;-82
2023/05/04 09:29:41;;;;;;;5.30;3.40;;;;;;;17.15;61.69;100001.22;6133747;23;20166;-80
2023/05/04 09:32:13;;;;;;;4.67;3.23;;;;;;;17.33;58.66;99995.47;6109677;23;20201;-80
2023/05/04 09:34:50;;;;;;;6.07;3.17;;;;;;;17.32;59.82;99987.59;6134227;23;20182;-80
2023/05/04 09:37:19;;;;;;;4.93;3.53;;;;;;;17.37;59.16;99991.19;6158286;23;20151;-80
2023/05/04 09:39:58;;;;;;;5.13;3.03;;;;;;;17.30;59.87;99987.06;6134210;23;20516;-80
2023/05/04 09:42:25;;;;;;;7.17;3.33;;;;;;;17.24;57.63;99983.47;6109629;23;20601;-80
2023/05/04 09:44:59;;;;;;;4.17;2.80;;;;;;;17.29;57.00;99980.81;6134227;23;20178;-80
2023/05/04 09:47:39;;;;;;;3.13;2.83;;;;;;;17.18;57.62;99977.16;6158129;23;20163;-81
2023/05/04 09:50:22;;;;;;;6.20;3.10;;;;;;;17.59;58.51;99975.72;6133708;23;20166;-80
2023/05/04 09:52:49;;;;;;;6.67;3.60;;;;;;;17.46;58.43;99972.56;6134265;23;20167;-81
2023/05/04 09:55:18;;;;;;;6.60;3.30;;;;;;;17.63;55.32;99970.63;6133246;23;20727;-80
2023/05/04 09:57:46;;;;;;;4.87;3.37;;;;;;;17.82;55.27;99968.34;6133863;23;20166;-81
2023/05/04 10:00:16;;;;;;;4.13;3.30;;;;;;;17.41;57.16;99967.09;6133708;23;20181;-80
2023/05/04 10:02:43;;;;;;;3.90;3.30;;;;;;;17.58;55.60;99967.84;6133870;23;20253;-81
2023/05/04 10:05:14;;;;;;;4.87;3.20;;;;;;;17.82;52.84;99971.88;6134083;23;20274;-82
2023/05/04 10:07:42;;;;;;;5.23;4.10;;;;;;;17.77;55.19;99960.16;6134007;23;20250;-81
2023/05/04 10:10:11;;;;;;;8.00;4.87;;;;;;;17.91;56.83;99962.19;6133567;23;20205;-80
2023/05/04 10:12:38;;;;;;;7.47;4.70;;;;;;;17.47;58.47;99957.97;6133954;23;20617;-81
2023/05/04 10:15:10;;;;;;;5.77;4.23;;;;;;;17.81;58.79;99951.25;6133301;23;20190;-81
2023/05/04 10:18:00;;;;;;;5.80;4.17;;;;;;;18.19;60.72;99954.78;6133381;23;20260;-81
2023/05/04 10:20:48;;;;;;;3.90;3.43;;;;;;;18.25;56.52;99934.75;6117678;23;20246;-81
2023/05/04 10:23:34;;;;;;;5.00;4.50;;;;;;;18.50;58.28;99932.16;6158262;23;20264;-81
2023/05/04 10:26:29;;;;;;;7.03;4.90;;;;;;;18.18;57.60;99936.88;6184099;23;20151;-81
2023/05/04 10:29:19;;;;;;;5.70;4.37;;;;;;;18.07;56.38;99933.28;6097589;23;20237;-81
2023/05/04 10:31:49;;;;;;;5.13;4.63;;;;;;;18.36;56.83;99929.13;6134489;23;20170;-81
2023/05/04 10:34:30;;;;;;;5.47;4.53;;;;;;;18.12;56.84;99935.19;6133578;23;20186;-81
2023/05/04 10:36:58;;;;;;;6.07;4.23;;;;;;;18.42;56.82;99919.94;6109642;23;20201;-81
2023/05/04 10:39:26;;;;;;;6.13;3.93;;;;;;;18.49;58.50;99923.22;6134160;23;20163;-81
2023/05/04 10:42:00;;;;;;;7.80;4.77;;;;;;;18.43;56.19;99921.53;6134018;23;20162;-80
2023/05/04 10:44:28;;;;;;;5.60;3.87;;;;;;;18.64;57.29;99919.78;6133416;23;20194;-81
2023/05/04 10:47:02;;;;;;;5.23;4.03;;;;;;;18.27;53.22;99913.59;6133741;23;20201;-81
2023/05/04 10:49:29;;;;;;;5.97;3.60;;;;;;;18.65;55.16;99921.44;6133920;23;20250;-81
2023/05/04 10:52:17;;;;;;;5.90;4.13;;;;;;;18.75;54.92;99905.19;6133695;23;20166;-81
2023/05/04 10:54:44;;;;;;;5.37;3.67;;;;;;;18.14;54.63;99908.66;6115023;23;20190;-81
2023/05/04 10:57:12;;;;;;;4.90;3.27;;;;;;;17.88;53.33;99904.94;6109054;23;20221;-81
2023/05/04 10:59:40;;;;;;;3.33;2.90;;;;;;;18.24;54.36;99898.69;6133758;23;20166;-81
2023/05/04 11:02:07;;;;;;;4.67;3.37;;;;;;;18.46;54.01;99907.47;6133548;23;20175;-81
2023/05/04 11:04:35;;;;;;;3.90;3.20;;;;;;;18.62;51.26;99902.94;6133559;23;20174;-81
2023/05/04 11:07:04;;;;;;;4.00;3.20;;;;;;;18.87;52.61;99907.66;6133568;23;20171;-81
2023/05/04 11:09:36;;;;;;;4.50;3.20;;;;;;;19.19;51.83;99899.31;6133867;23;20171;-81
2023/05/04 11:12:03;;;;;;;4.10;3.50;;;;;;;18.71;50.49;99898.63;6134058;23;20598;-81
2023/05/04 11:14:30;;;;;;;4.07;3.10;;;;;;;19.05;51.95;99899.00;6132657;23;20281;-80
2023/05/04 11:17:11;;;;;;;3.50;3.20;;;;;;;19.11;49.90;99888.97;6133343;23;20688;-81
2023/05/04 11:19:50;;;;;;;6.40;2.97;;;;;;;19.49;49.20;99884.97;6110291;23;20175;-81
2023/05/04 11:22:17;;;;;;;3.83;3.10;;;;;;;19.48;49.20;99886.06;6134021;23;20546;-80
2023/05/04 11:24:47;;;;;;;5.83;3.50;;;;;;;19.25;50.41;99884.66;6150211;23;20257;-80